sensor_id;sensor_type;location;lat;lon;timestamp;pressure;altitude;pressure_sealevel;temperature;humidity
9523;BME280;63165;43.016;25.784;2023-05-09T00:01:44;100478.00;;;15.69;88.95
9523;BME280;63165;43.016;25.784;2023-05-09T00:04:13;100478.09;;;15.66;88.80
9523;BME280;63165;43.016;25.784;2023-05-09T00:06:40;100458.34;;;15.51;88.76
9523;BME280;63165;43.016;25.784;2023-05-09T00:09:07;100469.31;;;15.65;88.87
9523;BME280;63165;43.016;25.784;2023-05-09T00:11:35;100466.63;;;15.67;89.09
9523;BME280;63165;43.016;25.784;2023-05-09T00:14:02;100468.44;;;15.65;89.25
9523;BME280;63165;43.016;25.784;2023-05-09T00:16:29;100478.06;;;15.67;88.50
9523;BME280;63165;43.016;25.784;2023-05-09T00:18:57;100476.41;;;15.63;89.27
9523;BME280;63165;43.016;25.784;2023-05-09T00:21:26;100482.59;;;15.62;89.05
9523;BME280;63165;43.016;25.784;2023-05-09T00:23:54;100478.38;;;15.57;88.85
9523;BME280;63165;43.016;25.784;2023-05-09T00:26:21;100481.06;;;15.55;89.57
9523;BME280;63165;43.016;25.784;2023-05-09T00:28:48;100475.75;;;15.57;88.95
9523;BME280;63165;43.016;25.784;2023-05-09T00:31:16;100481.91;;;15.56;89.46
9523;BME280;63165;43.016;25.784;2023-05-09T00:33:43;100472.25;;;15.56;88.94
9523;BME280;63165;43.016;25.784;2023-05-09T00:36:10;100489.06;;;15.52;89.02
9523;BME280;63165;43.016;25.784;2023-05-09T00:38:39;100470.78;;;15.46;88.50
9523;BME280;63165;43.016;25.784;2023-05-09T00:41:06;100463.19;;;15.35;88.51
9523;BME280;63165;43.016;25.784;2023-05-09T00:43:33;100478.84;;;15.41;88.96
9523;BME280;63165;43.016;25.784;2023-05-09T00:46:01;100485.78;;;15.44;88.76
9523;BME280;63165;43.016;25.784;2023-05-09T00:48:28;100459.91;;;15.28;89.00
9523;BME280;63165;43.016;25.784;2023-05-09T00:50:55;100484.06;;;15.43;88.97
9523;BME280;63165;43.016;25.784;2023-05-09T00:53:23;100486.63;;;15.46;89.25
9523;BME280;63165;43.016;25.784;2023-05-09T00:55:54;100484.00;;;15.44;88.12
9523;BME280;63165;43.016;25.784;2023-05-09T00:58:26;100472.19;;;15.28;88.32
9523;BME280;63165;43.016;25.784;2023-05-09T01:00:54;100470.31;;;15.31;88.22
9523;BME280;63165;43.016;25.784;2023-05-09T01:03:21;100478.38;;;15.27;88.84
9523;BME280;63165;43.016;25.784;2023-05-09T01:05:54;100479.50;;;15.18;88.68
9523;BME280;63165;43.016;25.784;2023-05-09T01:08:33;100484.63;;;15.24;88.26
9523;BME280;63165;43.016;25.784;2023-05-09T01:11:10;100480.38;;;15.19;88.59
9523;BME280;63165;43.016;25.784;2023-05-09T01:13:45;100488.97;;;15.25;88.94
9523;BME280;63165;43.016;25.784;2023-05-09T01:16:20;100486.28;;;15.27;88.73
9523;BME280;63165;43.016;25.784;2023-05-09T01:18:54;100492.41;;;15.27;88.54
9523;BME280;63165;43.016;25.784;2023-05-09T01:21:27;100477.84;;;15.16;88.58
9523;BME280;63165;43.016;25.784;2023-05-09T01:27:20;100480.56;;;15.12;88.63
9523;BME280;63165;43.016;25.784;2023-05-09T01:29:55;100486.59;;;15.16;88.61
9523;BME280;63165;43.016;25.784;2023-05-09T01:32:24;100485.59;;;15.20;88.58
9523;BME280;63165;43.016;25.784;2023-05-09T01:34:56;100484.81;;;15.17;88.97
9523;BME280;63165;43.016;25.784;2023-05-09T01:37:29;100465.09;;;15.00;89.71
9523;BME280;63165;43.016;25.784;2023-05-09T01:39:59;100485.53;;;15.23;89.63
9523;BME280;63165;43.016;25.784;2023-05-09T01:42:37;100480.25;;;15.23;89.02
9523;BME280;63165;43.016;25.784;2023-05-09T01:45:09;100490.78;;;15.23;89.37
9523;BME280;63165;43.016;25.784;2023-05-09T01:47:38;100476.03;;;15.18;89.52
9523;BME280;63165;43.016;25.784;2023-05-09T01:50:08;100449.06;;;15.08;89.69
9523;BME280;63165;43.016;25.784;2023-05-09T01:52:37;100480.44;;;15.17;90.36
9523;BME280;63165;43.016;25.784;2023-05-09T01:55:05;100481.25;;;15.19;90.35
9523;BME280;63165;43.016;25.784;2023-05-09T01:57:34;100473.22;;;15.22;90.36
9523;BME280;63165;43.016;25.784;2023-05-09T02:00:08;100464.84;;;15.09;89.61
9523;BME280;63165;43.016;25.784;2023-05-09T02:02:37;100446.78;;;14.95;89.47
9523;BME280;63165;43.016;25.784;2023-05-09T02:05:07;100472.22;;;14.97;90.18
9523;BME280;63165;43.016;25.784;2023-05-09T02:07:36;100495.81;;;15.01;90.42
9523;BME280;63165;43.016;25.784;2023-05-09T02:10:06;100479.31;;;14.94;91.22
9523;BME280;63165;43.016;25.784;2023-05-09T02:12:35;100489.16;;;14.88;91.18
9523;BME280;63165;43.016;25.784;2023-05-09T02:15:03;100486.78;;;14.77;90.61
9523;BME280;63165;43.016;25.784;2023-05-09T02:17:31;100486.34;;;14.61;90.96
9523;BME280;63165;43.016;25.784;2023-05-09T02:19:59;100469.34;;;14.39;91.68
9523;BME280;63165;43.016;25.784;2023-05-09T02:22:27;100484.13;;;14.44;92.15
9523;BME280;63165;43.016;25.784;2023-05-09T02:24:54;100496.47;;;14.42;92.91
9523;BME280;63165;43.016;25.784;2023-05-09T02:27:21;100501.13;;;14.31;93.72
9523;BME280;63165;43.016;25.784;2023-05-09T02:29:50;100491.69;;;14.22;93.92
9523;BME280;63165;43.016;25.784;2023-05-09T02:32:25;100495.38;;;14.15;94.42
9523;BME280;63165;43.016;25.784;2023-05-09T02:34:54;100493.78;;;14.08;95.02
9523;BME280;63165;43.016;25.784;2023-05-09T02:37:23;100500.16;;;13.99;95.76
9523;BME280;63165;43.016;25.784;2023-05-09T02:39:51;100492.34;;;13.94;96.39
9523;BME280;63165;43.016;25.784;2023-05-09T02:42:20;100501.22;;;13.90;96.20
9523;BME280;63165;43.016;25.784;2023-05-09T02:44:49;100498.69;;;13.86;96.78
9523;BME280;63165;43.016;25.784;2023-05-09T02:47:17;100497.81;;;13.85;96.74
9523;BME280;63165;43.016;25.784;2023-05-09T02:49:44;100509.25;;;13.84;97.09
9523;BME280;63165;43.016;25.784;2023-05-09T02:52:13;100506.66;;;13.83;97.24
9523;BME280;63165;43.016;25.784;2023-05-09T02:54:40;100515.44;;;13.82;97.29
9523;BME280;63165;43.016;25.784;2023-05-09T02:57:07;100508.56;;;13.76;97.48
9523;BME280;63165;43.016;25.784;2023-05-09T02:59:35;100518.41;;;13.66;97.22
9523;BME280;63165;43.016;25.784;2023-05-09T03:02:02;100532.22;;;13.76;96.98
9523;BME280;63165;43.016;25.784;2023-05-09T03:04:29;100534.06;;;13.72;97.27
9523;BME280;63165;43.016;25.784;2023-05-09T03:06:56;100524.72;;;13.57;97.79
9523;BME280;63165;43.016;25.784;2023-05-09T03:09:25;100534.13;;;13.69;97.40
9523;BME280;63165;43.016;25.784;2023-05-09T03:11:54;100535.06;;;13.65;97.62
9523;BME280;63165;43.016;25.784;2023-05-09T03:14:22;100529.81;;;13.65;97.53
9523;BME280;63165;43.016;25.784;2023-05-09T03:16:49;100522.06;;;13.59;97.32
9523;BME280;63165;43.016;25.784;2023-05-09T03:19:16;100543.81;;;13.67;97.00
9523;BME280;63165;43.016;25.784;2023-05-09T03:21:43;100556.00;;;13.71;97.31
9523;BME280;63165;43.016;25.784;2023-05-09T03:24:10;100550.66;;;13.74;97.06
9523;BME280;63165;43.016;25.784;2023-05-09T03:26:39;100546.50;;;13.64;96.42
9523;BME280;63165;43.016;25.784;2023-05-09T03:29:06;100562.16;;;13.70;96.29
9523;BME280;63165;43.016;25.784;2023-05-09T03:31:34;100551.81;;;13.61;96.32
9523;BME280;63165;43.016;25.784;2023-05-09T03:34:01;100564.13;;;13.59;96.07
9523;BME280;63165;43.016;25.784;2023-05-09T03:36:28;100573.69;;;13.63;96.08
9523;BME280;63165;43.016;25.784;2023-05-09T03:38:56;100576.44;;;13.58;96.44
9523;BME280;63165;43.016;25.784;2023-05-09T03:41:24;100572.22;;;13.50;96.28
9523;BME280;63165;43.016;25.784;2023-05-09T03:43:53;100549.69;;;13.38;96.02
9523;BME280;63165;43.016;25.784;2023-05-09T03:46:20;100574.88;;;13.48;96.06
9523;BME280;63165;43.016;25.784;2023-05-09T03:48:47;100574.22;;;13.37;96.43
9523;BME280;63165;43.016;25.784;2023-05-09T03:51:14;100573.34;;;13.38;96.17
9523;BME280;63165;43.016;25.784;2023-05-09T03:53:44;100577.78;;;13.34;96.57
9523;BME280;63165;43.016;25.784;2023-05-09T03:56:11;100582.22;;;13.29;96.70
9523;BME280;63165;43.016;25.784;2023-05-09T03:58:39;100590.19;;;13.26;97.03
9523;BME280;63165;43.016;25.784;2023-05-09T04:01:07;100581.41;;;13.26;97.03
9523;BME280;63165;43.016;25.784;2023-05-09T04:03:35;100587.50;;;13.31;97.38
9523;BME280;63165;43.016;25.784;2023-05-09T04:06:04;100591.03;;;13.27;97.80
9523;BME280;63165;43.016;25.784;2023-05-09T04:08:31;100576.19;;;13.24;97.37
9523;BME280;63165;43.016;25.784;2023-05-09T04:10:59;100587.56;;;13.26;97.38
9523;BME280;63165;43.016;25.784;2023-05-09T04:13:29;100601.59;;;13.24;97.26
9523;BME280;63165;43.016;25.784;2023-05-09T04:15:57;100597.31;;;13.19;97.63
9523;BME280;63165;43.016;25.784;2023-05-09T04:18:26;100595.56;;;13.18;97.99
9523;BME280;63165;43.016;25.784;2023-05-09T04:20:53;100603.44;;;13.18;97.37
9523;BME280;63165;43.016;25.784;2023-05-09T04:23:21;100582.66;;;13.08;97.89
9523;BME280;63165;43.016;25.784;2023-05-09T04:25:48;100605.09;;;13.24;97.94
9523;BME280;63165;43.016;25.784;2023-05-09T04:28:16;100579.09;;;13.09;98.11
9523;BME280;63165;43.016;25.784;2023-05-09T04:30:44;100605.00;;;13.29;97.49
9523;BME280;63165;43.016;25.784;2023-05-09T04:33:11;100615.56;;;13.27;97.04
9523;BME280;63165;43.016;25.784;2023-05-09T04:35:40;100614.75;;;13.22;96.48
9523;BME280;63165;43.016;25.784;2023-05-09T04:38:07;100621.91;;;13.15;96.47
9523;BME280;63165;43.016;25.784;2023-05-09T04:40:34;100627.97;;;13.19;96.34
9523;BME280;63165;43.016;25.784;2023-05-09T04:43:01;100613.03;;;13.23;96.21
9523;BME280;63165;43.016;25.784;2023-05-09T04:45:28;100611.38;;;13.17;96.01
9523;BME280;63165;43.016;25.784;2023-05-09T04:47:56;100616.38;;;13.29;95.53
9523;BME280;63165;43.016;25.784;2023-05-09T04:50:23;100607.03;;;13.14;95.05
9523;BME280;63165;43.016;25.784;2023-05-09T04:52:53;100626.91;;;13.28;94.69
9523;BME280;63165;43.016;25.784;2023-05-09T04:55:20;100623.59;;;13.19;94.20
9523;BME280;63165;43.016;25.784;2023-05-09T04:57:47;100642.91;;;13.17;93.73
9523;BME280;63165;43.016;25.784;2023-05-09T05:00:15;100631.63;;;13.10;93.42
9523;BME280;63165;43.016;25.784;2023-05-09T05:02:43;100627.31;;;13.06;93.88
9523;BME280;63165;43.016;25.784;2023-05-09T05:05:11;100629.09;;;13.06;93.54
9523;BME280;63165;43.016;25.784;2023-05-09T05:07:38;100635.22;;;13.06;93.43
9523;BME280;63165;43.016;25.784;2023-05-09T05:10:08;100636.91;;;13.09;93.90
9523;BME280;63165;43.016;25.784;2023-05-09T05:12:35;100644.75;;;13.10;93.59
9523;BME280;63165;43.016;25.784;2023-05-09T05:15:03;100633.28;;;13.14;93.18
9523;BME280;63165;43.016;25.784;2023-05-09T05:17:30;100629.84;;;13.12;93.52
9523;BME280;63165;43.016;25.784;2023-05-09T05:19:58;100634.25;;;13.10;92.93
9523;BME280;63165;43.016;25.784;2023-05-09T05:22:25;100626.50;;;13.04;93.03
9523;BME280;63165;43.016;25.784;2023-05-09T05:24:52;100622.94;;;13.05;93.14
9523;BME280;63165;43.016;25.784;2023-05-09T05:27:20;100635.09;;;13.11;93.14
9523;BME280;63165;43.016;25.784;2023-05-09T05:29:48;100639.56;;;13.07;92.50
9523;BME280;63165;43.016;25.784;2023-05-09T05:32:15;100643.06;;;13.08;92.45
9523;BME280;63165;43.016;25.784;2023-05-09T05:34:42;100648.25;;;13.11;92.61
9523;BME280;63165;43.016;25.784;2023-05-09T05:37:09;100638.69;;;13.07;92.20
9523;BME280;63165;43.016;25.784;2023-05-09T05:39:36;100653.47;;;13.14;92.49
9523;BME280;63165;43.016;25.784;2023-05-09T05:42:03;100651.69;;;13.14;92.24
9523;BME280;63165;43.016;25.784;2023-05-09T05:44:32;100644.03;;;13.04;92.06
9523;BME280;63165;43.016;25.784;2023-05-09T05:46:59;100671.75;;;13.18;92.54
9523;BME280;63165;43.016;25.784;2023-05-09T05:49:28;100666.56;;;13.15;92.31
9523;BME280;63165;43.016;25.784;2023-05-09T05:51:57;100666.56;;;13.17;91.87
9523;BME280;63165;43.016;25.784;2023-05-09T05:54:25;100671.84;;;13.14;91.73
9523;BME280;63165;43.016;25.784;2023-05-09T05:56:52;100662.19;;;13.16;91.89
9523;BME280;63165;43.016;25.784;2023-05-09T05:59:39;100671.00;;;13.12;91.04
9523;BME280;63165;43.016;25.784;2023-05-09T06:02:06;100664.06;;;13.09;90.59
9523;BME280;63165;43.016;25.784;2023-05-09T06:04:33;100667.56;;;13.08;90.32
9523;BME280;63165;43.016;25.784;2023-05-09T06:07:00;100673.69;;;13.07;90.44
9523;BME280;63165;43.016;25.784;2023-05-09T06:09:27;100659.81;;;13.02;90.25
9523;BME280;63165;43.016;25.784;2023-05-09T06:11:56;100665.91;;;13.04;90.48
9523;BME280;63165;43.016;25.784;2023-05-09T06:14:23;100666.88;;;12.98;90.30
9523;BME280;63165;43.016;25.784;2023-05-09T06:16:52;100669.53;;;12.95;90.19
9523;BME280;63165;43.016;25.784;2023-05-09T06:19:25;100658.28;;;12.89;90.06
9523;BME280;63165;43.016;25.784;2023-05-09T06:21:53;100666.91;;;12.95;90.33
9523;BME280;63165;43.016;25.784;2023-05-09T06:24:25;100652.13;;;12.90;89.97
9523;BME280;63165;43.016;25.784;2023-05-09T06:27:08;100621.72;;;12.75;90.14
9523;BME280;63165;43.016;25.784;2023-05-09T06:29:40;100676.41;;;13.02;90.41
9523;BME280;63165;43.016;25.784;2023-05-09T06:32:09;100670.31;;;13.00;89.80
9523;BME280;63165;43.016;25.784;2023-05-09T06:34:48;100680.97;;;12.91;89.71
9523;BME280;63165;43.016;25.784;2023-05-09T06:40:42;100661.09;;;12.75;89.73
9523;BME280;63165;43.016;25.784;2023-05-09T06:43:12;100680.03;;;12.95;90.09
9523;BME280;63165;43.016;25.784;2023-05-09T06:49:01;100681.72;;;12.99;89.22
9523;BME280;63165;43.016;25.784;2023-05-09T06:51:46;100649.59;;;12.84;89.47
9523;BME280;63165;43.016;25.784;2023-05-09T06:54:22;100670.31;;;13.00;89.58
9523;BME280;63165;43.016;25.784;2023-05-09T06:57:01;100646.88;;;12.88;89.25
9523;BME280;63165;43.016;25.784;2023-05-09T06:59:38;100668.66;;;12.95;89.36
9523;BME280;63165;43.016;25.784;2023-05-09T07:05:54;100650.63;;;12.72;89.49
9523;BME280;63165;43.016;25.784;2023-05-09T07:08:26;100658.28;;;12.89;89.03
9523;BME280;63165;43.016;25.784;2023-05-09T07:11:07;100687.78;;;13.05;88.92
9523;BME280;63165;43.016;25.784;2023-05-09T07:13:44;100640.06;;;12.78;89.06
9523;BME280;63165;43.016;25.784;2023-05-09T07:16:26;100656.66;;;12.80;88.70
9523;BME280;63165;43.016;25.784;2023-05-09T07:19:16;100658.28;;;12.87;88.29
9523;BME280;63165;43.016;25.784;2023-05-09T07:24:46;100661.78;;;12.88;88.61
9523;BME280;63165;43.016;25.784;2023-05-09T07:27:47;100666.84;;;13.00;89.07
9523;BME280;63165;43.016;25.784;2023-05-09T07:30:14;100654.72;;;12.91;88.69
9523;BME280;63165;43.016;25.784;2023-05-09T07:32:42;100653.72;;;12.98;88.50
9523;BME280;63165;43.016;25.784;2023-05-09T07:35:24;100676.19;;;13.16;88.03
9523;BME280;63165;43.016;25.784;2023-05-09T07:37:52;100678.78;;;13.18;88.58
9523;BME280;63165;43.016;25.784;2023-05-09T07:40:19;100659.72;;;13.05;88.07
9523;BME280;63165;43.016;25.784;2023-05-09T07:42:47;100661.50;;;13.05;87.73
9523;BME280;63165;43.016;25.784;2023-05-09T07:45:14;100664.97;;;13.07;87.58
9523;BME280;63165;43.016;25.784;2023-05-09T07:47:41;100668.34;;;13.15;88.04
9523;BME280;63165;43.016;25.784;2023-05-09T07:50:08;100692.69;;;13.25;87.39
9523;BME280;63165;43.016;25.784;2023-05-09T07:52:36;100690.88;;;13.28;87.73
9523;BME280;63165;43.016;25.784;2023-05-09T07:55:06;100691.91;;;13.19;87.21
9523;BME280;63165;43.016;25.784;2023-05-09T07:57:33;100691.72;;;13.32;86.77
9523;BME280;63165;43.016;25.784;2023-05-09T08:00:00;100683.88;;;13.30;87.32
9523;BME280;63165;43.016;25.784;2023-05-09T08:02:28;100683.88;;;13.30;86.94
9523;BME280;63165;43.016;25.784;2023-05-09T08:07:46;100672.63;;;13.20;87.27
9523;BME280;63165;43.016;25.784;2023-05-09T08:10:15;100680.56;;;13.16;86.83
9523;BME280;63165;43.016;25.784;2023-05-09T08:16:06;100701.09;;;13.47;87.10
9523;BME280;63165;43.016;25.784;2023-05-09T08:18:33;100702.78;;;13.49;87.53
9523;BME280;63165;43.016;25.784;2023-05-09T08:21:01;100670.59;;;13.36;86.82
9523;BME280;63165;43.016;25.784;2023-05-09T08:23:29;100691.34;;;13.52;87.01
9523;BME280;63165;43.016;25.784;2023-05-09T08:26:02;100699.06;;;13.61;87.27
9523;BME280;63165;43.016;25.784;2023-05-09T08:28:30;100689.50;;;13.58;86.87
9523;BME280;63165;43.016;25.784;2023-05-09T08:30:58;100680.66;;;13.61;86.20
9523;BME280;63165;43.016;25.784;2023-05-09T08:33:25;100678.81;;;13.66;86.72
9523;BME280;63165;43.016;25.784;2023-05-09T08:35:54;100691.69;;;13.80;85.55
9523;BME280;63165;43.016;25.784;2023-05-09T08:38:22;100697.00;;;13.78;85.38
9523;BME280;63165;43.016;25.784;2023-05-09T08:40:51;100702.22;;;13.80;84.90
9523;BME280;63165;43.016;25.784;2023-05-09T08:43:22;100684.72;;;13.79;84.54
9523;BME280;63165;43.016;25.784;2023-05-09T08:45:53;100697.84;;;13.79;83.97
9523;BME280;63165;43.016;25.784;2023-05-09T08:48:52;100675.06;;;13.78;83.74
9523;BME280;63165;43.016;25.784;2023-05-09T08:51:30;100708.19;;;13.88;82.82
9523;BME280;63165;43.016;25.784;2023-05-09T08:53:58;100664.72;;;13.69;82.13
9523;BME280;63165;43.016;25.784;2023-05-09T08:56:26;100682.94;;;13.79;81.98
9523;BME280;63165;43.016;25.784;2023-05-09T08:58:58;100680.47;;;13.70;82.00
9523;BME280;63165;43.016;25.784;2023-05-09T09:01:49;100663.75;;;13.74;82.16
9523;BME280;63165;43.016;25.784;2023-05-09T09:04:18;100670.66;;;13.80;81.75
9523;BME280;63165;43.016;25.784;2023-05-09T09:06:45;100683.53;;;13.94;80.39
9523;BME280;63165;43.016;25.784;2023-05-09T09:09:14;100679.19;;;13.91;80.19
9523;BME280;63165;43.016;25.784;2023-05-09T09:11:43;100671.19;;;13.97;81.08
9523;BME280;63165;43.016;25.784;2023-05-09T09:14:14;100670.06;;;14.09;81.08
9523;BME280;63165;43.016;25.784;2023-05-09T09:16:43;100672.75;;;14.06;79.62
9523;BME280;63165;43.016;25.784;2023-05-09T09:19:16;100685.69;;;14.17;79.35
9523;BME280;63165;43.016;25.784;2023-05-09T09:21:45;100693.59;;;14.15;79.86
9523;BME280;63165;43.016;25.784;2023-05-09T09:24:20;100678.75;;;14.13;79.19
9523;BME280;63165;43.016;25.784;2023-05-09T09:26:49;100709.13;;;14.29;78.83
9523;BME280;63165;43.016;25.784;2023-05-09T09:29:18;100682.16;;;14.18;78.32
9523;BME280;63165;43.016;25.784;2023-05-09T09:31:47;100676.09;;;14.14;78.30
9523;BME280;63165;43.016;25.784;2023-05-09T09:34:20;100669.22;;;14.07;77.22
9523;BME280;63165;43.016;25.784;2023-05-09T09:36:51;100692.38;;;14.32;77.67
9523;BME280;63165;43.016;25.784;2023-05-09T09:39:18;100708.34;;;14.24;77.31
9523;BME280;63165;43.016;25.784;2023-05-09T09:41:47;100696.66;;;14.36;76.96
9523;BME280;63165;43.016;25.784;2023-05-09T09:44:15;100675.91;;;14.24;77.38
9523;BME280;63165;43.016;25.784;2023-05-09T09:46:44;100684.41;;;14.35;76.82
9523;BME280;63165;43.016;25.784;2023-05-09T09:49:16;100697.50;;;14.38;76.59
9523;BME280;63165;43.016;25.784;2023-05-09T09:51:50;100689.81;;;14.29;76.98
9523;BME280;63165;43.016;25.784;2023-05-09T09:54:19;100700.13;;;14.38;77.07
9523;BME280;63165;43.016;25.784;2023-05-09T09:56:48;100680.13;;;14.31;77.33
9523;BME280;63165;43.016;25.784;2023-05-09T09:59:16;100712.16;;;14.51;77.38
9523;BME280;63165;43.016;25.784;2023-05-09T10:02:08;100682.63;;;14.37;77.88
9523;BME280;63165;43.016;25.784;2023-05-09T10:04:42;100679.75;;;14.48;77.34
9523;BME280;63165;43.016;25.784;2023-05-09T10:07:11;100692.81;;;14.52;77.66
9523;BME280;63165;43.016;25.784;2023-05-09T10:09:39;100708.22;;;14.71;77.50
9523;BME280;63165;43.016;25.784;2023-05-09T10:12:07;100693.16;;;14.78;77.58
9523;BME280;63165;43.016;25.784;2023-05-09T10:14:36;100703.44;;;14.87;77.00
9523;BME280;63165;43.016;25.784;2023-05-09T10:17:05;100705.06;;;14.92;77.43
9523;BME280;63165;43.016;25.784;2023-05-09T10:19:34;100703.97;;;15.01;77.22
9523;BME280;63165;43.016;25.784;2023-05-09T10:22:05;100686.47;;;15.00;76.95
9523;BME280;63165;43.016;25.784;2023-05-09T10:24:40;100685.53;;;15.01;76.50
9523;BME280;63165;43.016;25.784;2023-05-09T10:27:08;100693.03;;;15.17;76.49
9523;BME280;63165;43.016;25.784;2023-05-09T10:29:43;100699.13;;;15.19;76.54
9523;BME280;63165;43.016;25.784;2023-05-09T10:32:14;100693.03;;;15.17;75.99
9523;BME280;63165;43.016;25.784;2023-05-09T10:34:48;100703.31;;;15.27;75.47
9523;BME280;63165;43.016;25.784;2023-05-09T10:37:17;100698.06;;;15.27;75.23
9523;BME280;63165;43.016;25.784;2023-05-09T10:39:46;100700.50;;;15.35;75.38
9523;BME280;63165;43.016;25.784;2023-05-09T10:42:18;100698.59;;;15.40;74.72
9523;BME280;63165;43.016;25.784;2023-05-09T10:44:45;100703.72;;;15.46;74.48
9523;BME280;63165;43.016;25.784;2023-05-09T10:47:13;100700.25;;;15.44;73.63
9523;BME280;63165;43.016;25.784;2023-05-09T10:49:42;100708.09;;;15.47;73.65
9523;BME280;63165;43.016;25.784;2023-05-09T10:52:10;100702.88;;;15.44;73.45
9523;BME280;63165;43.016;25.784;2023-05-09T10:54:37;100673.34;;;15.31;72.68
9523;BME280;63165;43.016;25.784;2023-05-09T10:57:08;100699.34;;;15.45;73.58
9523;BME280;63165;43.016;25.784;2023-05-09T10:59:36;100702.75;;;15.50;73.83
9523;BME280;63165;43.016;25.784;2023-05-09T11:02:05;100699.31;;;15.47;74.18
9523;BME280;63165;43.016;25.784;2023-05-09T11:04:38;100681.19;;;15.34;73.46
9523;BME280;63165;43.016;25.784;2023-05-09T11:07:21;100695.66;;;15.52;74.21
9523;BME280;63165;43.016;25.784;2023-05-09T11:10:13;100688.81;;;15.45;74.76
9523;BME280;63165;43.016;25.784;2023-05-09T11:12:55;100695.34;;;15.63;74.50
9523;BME280;63165;43.016;25.784;2023-05-09T11:15:23;100671.84;;;15.54;74.97
9523;BME280;63165;43.016;25.784;2023-05-09T11:18:04;100661.38;;;15.52;74.54
9523;BME280;63165;43.016;25.784;2023-05-09T11:20:33;100673.41;;;15.61;74.09
9523;BME280;63165;43.016;25.784;2023-05-09T11:26:20;100678.38;;;15.75;73.63
9523;BME280;63165;43.016;25.784;2023-05-09T11:42:45;100683.88;;;15.66;74.06
9523;BME280;63165;43.016;25.784;2023-05-09T11:45:26;100673.53;;;15.58;73.98
9523;BME280;63165;43.016;25.784;2023-05-09T11:48:20;100663.13;;;15.52;72.24
9523;BME280;63165;43.016;25.784;2023-05-09T11:51:07;100691.75;;;15.67;72.54
9523;BME280;63165;43.016;25.784;2023-05-09T11:54:17;100693.38;;;15.71;73.71
9523;BME280;63165;43.016;25.784;2023-05-09T11:56:44;100682.28;;;15.59;73.24
9523;BME280;63165;43.016;25.784;2023-05-09T11:59:17;100693.41;;;15.70;72.47
9523;BME280;63165;43.016;25.784;2023-05-09T12:04:51;100701.28;;;15.71;72.25
9523;BME280;63165;43.016;25.784;2023-05-09T12:07:40;100686.50;;;15.66;72.27
9523;BME280;63165;43.016;25.784;2023-05-09T12:10:21;100700.28;;;15.77;73.08
9523;BME280;63165;43.016;25.784;2023-05-09T12:19:39;100688.00;;;15.76;72.41
9523;BME280;63165;43.016;25.784;2023-05-09T12:22:09;100654.91;;;15.63;72.11
9523;BME280;63165;43.016;25.784;2023-05-09T12:25:21;100680.63;;;15.87;71.74
9523;BME280;63165;43.016;25.784;2023-05-09T12:28:25;100650.38;;;15.68;71.42
9523;BME280;63165;43.016;25.784;2023-05-09T12:31:13;100673.53;;;15.89;71.98
9523;BME280;63165;43.016;25.784;2023-05-09T12:33:43;100676.03;;;15.96;72.93
9523;BME280;63165;43.016;25.784;2023-05-09T12:36:27;100655.19;;;15.86;72.85
9523;BME280;63165;43.016;25.784;2023-05-09T12:39:11;100665.69;;;15.88;72.30
9523;BME280;63165;43.016;25.784;2023-05-09T12:41:43;100678.56;;;15.99;73.68
9523;BME280;63165;43.016;25.784;2023-05-09T12:44:17;100655.19;;;15.86;74.38
9523;BME280;63165;43.016;25.784;2023-05-09T12:46:58;100662.75;;;15.97;76.01
9523;BME280;63165;43.016;25.784;2023-05-09T12:49:27;100643.22;;;15.73;76.47
9523;BME280;63165;43.016;25.784;2023-05-09T12:51:59;100647.59;;;15.72;77.00
9523;BME280;63165;43.016;25.784;2023-05-09T12:54:27;100660.53;;;15.83;77.65
9523;BME280;63165;43.016;25.784;2023-05-09T12:56:56;100665.84;;;15.82;78.12
9523;BME280;63165;43.016;25.784;2023-05-09T12:59:24;100654.50;;;15.78;78.26
9523;BME280;63165;43.016;25.784;2023-05-09T13:01:55;100663.16;;;15.83;78.83
9523;BME280;63165;43.016;25.784;2023-05-09T13:04:23;100661.47;;;15.82;78.38
9523;BME280;63165;43.016;25.784;2023-05-09T13:06:53;100656.09;;;15.84;78.77
9523;BME280;63165;43.016;25.784;2023-05-09T13:09:25;100657.06;;;15.81;78.38
9523;BME280;63165;43.016;25.784;2023-05-09T13:11:53;100661.53;;;15.79;78.06
9523;BME280;63165;43.016;25.784;2023-05-09T13:14:21;100651.50;;;15.59;78.62
9523;BME280;63165;43.016;25.784;2023-05-09T13:16:48;100657.59;;;15.61;78.62
9523;BME280;63165;43.016;25.784;2023-05-09T13:19:16;100649.69;;;15.61;78.85
9523;BME280;63165;43.016;25.784;2023-05-09T13:21:43;100653.28;;;15.59;79.41
9523;BME280;63165;43.016;25.784;2023-05-09T13:24:11;100656.88;;;15.56;79.62
9523;BME280;63165;43.016;25.784;2023-05-09T13:26:39;100653.47;;;15.52;79.86
9523;BME280;63165;43.016;25.784;2023-05-09T13:29:07;100661.50;;;15.46;80.54
9523;BME280;63165;43.016;25.784;2023-05-09T13:31:34;100648.47;;;15.42;81.01
9523;BME280;63165;43.016;25.784;2023-05-09T13:34:02;100646.84;;;15.38;80.71
9523;BME280;63165;43.016;25.784;2023-05-09T13:36:29;100652.00;;;15.41;81.33
9523;BME280;63165;43.016;25.784;2023-05-09T13:38:57;100644.97;;;15.41;81.86
9523;BME280;63165;43.016;25.784;2023-05-09T13:41:24;100650.13;;;15.46;81.66
9523;BME280;63165;43.016;25.784;2023-05-09T13:43:53;100647.41;;;15.49;82.30
9523;BME280;63165;43.016;25.784;2023-05-09T13:46:20;100633.53;;;15.41;82.46
9523;BME280;63165;43.016;25.784;2023-05-09T13:48:47;100625.84;;;15.33;82.38
9523;BME280;63165;43.016;25.784;2023-05-09T13:51:15;100653.78;;;15.40;82.46
9523;BME280;63165;43.016;25.784;2023-05-09T13:53:42;100642.34;;;15.41;82.44
9523;BME280;63165;43.016;25.784;2023-05-09T13:56:09;100646.72;;;15.41;82.70
9523;BME280;63165;43.016;25.784;2023-05-09T13:58:37;100629.47;;;15.29;82.98